createdAt,value
2018-07-15T00:00:03.299Z,19.34
2018-07-15T00:02:32.473Z,19.37
2018-07-15T00:05:01.378Z,19.33
2018-07-15T00:07:30.395Z,19.31
2018-07-15T00:09:59.622Z,19.26
2018-07-15T00:12:28.789Z,19.21
2018-07-15T00:14:57.781Z,19.15
2018-07-15T00:17:26.977Z,19.21
2018-07-15T00:19:56.154Z,19.18
2018-07-15T00:22:25.597Z,19.20
2018-07-15T00:24:54.846Z,19.09
2018-07-15T00:27:24.735Z,19.02
2018-07-15T00:29:54.270Z,19.02
2018-07-15T00:32:23.366Z,18.99
2018-07-15T00:34:52.394Z,18.96
2018-07-15T00:37:21.461Z,18.93
2018-07-15T00:39:50.763Z,18.92
2018-07-15T00:42:19.890Z,18.94
2018-07-15T00:44:49.167Z,18.97
2018-07-15T00:47:18.538Z,18.96
2018-07-15T00:49:47.663Z,18.88
2018-07-15T00:52:16.857Z,18.76
2018-07-15T00:54:46.065Z,18.76
2018-07-15T00:57:15.253Z,18.64
2018-07-15T00:59:44.633Z,18.61
2018-07-15T01:02:13.838Z,18.21
2018-07-15T01:04:42.925Z,18.53
2018-07-15T01:07:12.061Z,18.55
2018-07-15T01:09:41.363Z,18.48
2018-07-15T01:12:10.590Z,18.44
2018-07-15T01:14:39.737Z,18.41
2018-07-15T01:17:08.941Z,18.42
2018-07-15T01:19:38.228Z,18.43
2018-07-15T01:22:07.333Z,18.48
2018-07-15T01:24:36.599Z,18.47
2018-07-15T01:27:05.899Z,18.45
2018-07-15T01:29:35.117Z,18.48
2018-07-15T01:32:04.292Z,18.50
2018-07-15T01:34:33.514Z,18.43
2018-07-15T01:37:02.609Z,18.51
2018-07-15T01:39:31.938Z,18.40
2018-07-15T01:42:01.167Z,18.39
2018-07-15T01:44:30.364Z,18.42
2018-07-15T01:46:59.537Z,18.42
2018-07-15T01:49:28.730Z,18.46
2018-07-15T01:51:57.961Z,18.44
2018-07-15T01:54:26.682Z,18.34
2018-07-15T01:56:55.405Z,18.32
2018-07-15T01:59:24.146Z,18.32
2018-07-15T02:01:52.866Z,18.26
2018-07-15T02:04:21.618Z,18.20
2018-07-15T02:06:50.334Z,18.24
2018-07-15T02:09:19.118Z,18.26
2018-07-15T02:11:47.944Z,18.21
2018-07-15T02:14:16.704Z,18.27
2018-07-15T02:16:45.471Z,18.36
2018-07-15T02:19:14.245Z,18.27
2018-07-15T02:21:43.003Z,18.31
2018-07-15T02:24:11.751Z,18.32
2018-07-15T02:26:40.477Z,18.36
2018-07-15T02:29:09.223Z,18.32
2018-07-15T02:31:38.017Z,18.20
2018-07-15T02:34:08.601Z,18.06
2018-07-15T02:36:37.405Z,18.01
2018-07-15T02:39:07.924Z,17.96
2018-07-15T02:41:36.772Z,17.90
2018-07-15T02:44:05.978Z,17.87
2018-07-15T02:46:34.831Z,17.89
2018-07-15T02:49:03.546Z,17.91
2018-07-15T02:51:32.238Z,17.90
2018-07-15T02:54:00.948Z,17.87
2018-07-15T02:56:29.650Z,17.95
2018-07-15T02:58:58.396Z,18.00
2018-07-15T03:01:27.111Z,18.07
2018-07-15T03:03:55.831Z,18.06
2018-07-15T03:06:24.552Z,18.15
2018-07-15T03:08:53.282Z,18.20
2018-07-15T03:11:22.162Z,18.19
2018-07-15T03:13:51.027Z,18.18
2018-07-15T03:16:19.784Z,18.15
2018-07-15T03:18:48.526Z,18.14
2018-07-15T03:21:17.272Z,18.19
2018-07-15T03:23:51.602Z,18.16
2018-07-15T03:26:20.363Z,18.18
2018-07-15T03:28:49.701Z,18.26
2018-07-15T03:31:18.431Z,18.31
2018-07-15T03:33:47.128Z,18.36
2018-07-15T03:36:15.892Z,18.48
2018-07-15T03:38:44.678Z,18.65
2018-07-15T03:41:13.406Z,18.86
2018-07-15T03:43:42.228Z,19.71
2018-07-15T03:46:10.964Z,21.36
2018-07-15T03:48:39.681Z,22.88
2018-07-15T03:51:08.481Z,24.07
2018-07-15T03:53:37.170Z,25.05
2018-07-15T03:56:05.893Z,26.19
2018-07-15T03:58:34.633Z,27.18
2018-07-15T04:01:03.400Z,28.31
2018-07-15T04:03:32.116Z,28.92
2018-07-15T04:06:00.837Z,29.21
2018-07-15T04:08:29.717Z,30.05
2018-07-15T04:10:58.528Z,30.64
2018-07-15T04:13:27.418Z,31.60
2018-07-15T04:15:56.131Z,31.93
2018-07-15T04:18:24.821Z,31.72
2018-07-15T04:20:53.589Z,31.91
2018-07-15T04:23:22.414Z,32.71
2018-07-15T04:25:51.171Z,32.84
2018-07-15T04:28:19.941Z,32.90
2018-07-15T04:30:48.658Z,32.75
2018-07-15T04:33:17.375Z,33.13
2018-07-15T04:35:46.102Z,33.51
2018-07-15T04:38:14.850Z,34.13
2018-07-15T04:40:43.563Z,34.14
2018-07-15T04:43:12.271Z,34.91
2018-07-15T04:45:40.971Z,34.90
2018-07-15T04:48:09.736Z,34.91
2018-07-15T04:50:38.451Z,35.41
2018-07-15T04:53:07.173Z,35.03
2018-07-15T04:55:35.975Z,35.06
2018-07-15T04:58:04.714Z,35.57
2018-07-15T05:00:33.436Z,34.80
2018-07-15T05:03:02.213Z,34.55
2018-07-15T05:05:30.916Z,34.88
2018-07-15T05:07:59.613Z,34.96
2018-07-15T05:10:28.305Z,35.30
2018-07-15T05:12:57.017Z,36.18
2018-07-15T05:15:25.832Z,37.57
2018-07-15T05:17:54.608Z,37.88
2018-07-15T05:20:23.332Z,37.50
2018-07-15T05:22:52.061Z,37.33
2018-07-15T05:25:20.764Z,36.42
2018-07-15T05:27:49.494Z,36.41
2018-07-15T05:30:18.209Z,37.34
2018-07-15T05:32:46.937Z,38.12
2018-07-15T05:35:15.643Z,38.66
2018-07-15T05:37:44.332Z,38.93
2018-07-15T05:40:13.096Z,40.04
2018-07-15T05:42:41.802Z,40.68
2018-07-15T05:45:10.533Z,40.56
2018-07-15T05:47:39.296Z,40.73
2018-07-15T05:50:08.083Z,40.29
2018-07-15T05:52:36.851Z,41.10
2018-07-15T05:55:05.738Z,40.56
2018-07-15T05:57:34.450Z,40.51
2018-07-15T06:00:03.196Z,40.96
2018-07-15T06:02:31.931Z,40.47
2018-07-15T06:05:00.699Z,39.61
2018-07-15T06:07:29.457Z,39.64
2018-07-15T06:09:58.370Z,40.66
2018-07-15T06:12:27.145Z,40.19
2018-07-15T06:14:55.845Z,40.22
2018-07-15T06:17:24.593Z,39.95
2018-07-15T06:19:53.297Z,40.24
2018-07-15T06:22:21.987Z,39.70
2018-07-15T06:24:50.695Z,40.48
2018-07-15T06:27:19.469Z,40.45
2018-07-15T06:29:48.148Z,38.17
2018-07-15T06:32:16.846Z,39.84
2018-07-15T06:34:45.593Z,39.42
2018-07-15T06:37:14.286Z,37.99
2018-07-15T06:39:42.992Z,38.91
2018-07-15T06:42:11.901Z,38.65
2018-07-15T06:44:40.586Z,38.98
2018-07-15T06:47:09.341Z,38.51
2018-07-15T06:49:38.032Z,39.30
2018-07-15T06:52:06.781Z,39.20
2018-07-15T06:54:35.482Z,38.36
2018-07-15T06:57:04.177Z,39.14
2018-07-15T06:59:32.882Z,39.26
2018-07-15T07:02:01.618Z,37.88
2018-07-15T07:04:30.562Z,38.56
2018-07-15T07:06:59.299Z,39.45
2018-07-15T07:09:27.985Z,38.46
2018-07-15T07:11:56.676Z,39.40
2018-07-15T07:14:25.368Z,38.86
2018-07-15T07:16:54.053Z,39.19
2018-07-15T07:19:22.813Z,39.18
2018-07-15T07:21:51.496Z,39.22
2018-07-15T07:24:20.333Z,38.22
2018-07-15T07:26:49.056Z,38.48
2018-07-15T07:29:17.765Z,38.08
2018-07-15T07:31:47.457Z,38.84
2018-07-15T07:34:16.148Z,39.54
2018-07-15T07:36:44.941Z,38.22
2018-07-15T07:39:13.681Z,37.66
2018-07-15T07:41:42.397Z,38.01
2018-07-15T07:44:11.154Z,38.58
2018-07-15T07:46:39.852Z,38.78
2018-07-15T07:49:08.543Z,38.34
2018-07-15T07:51:37.276Z,39.22
2018-07-15T07:54:06.024Z,39.20
2018-07-15T07:56:34.811Z,39.20
2018-07-15T07:59:03.545Z,39.28
2018-07-15T08:01:32.245Z,38.18
2018-07-15T08:04:00.937Z,38.24
2018-07-15T08:06:29.714Z,38.15
2018-07-15T08:08:58.393Z,37.80
2018-07-15T08:11:27.245Z,37.74
2018-07-15T08:13:55.943Z,37.25
2018-07-15T08:16:24.649Z,36.95
2018-07-15T08:18:53.389Z,36.26
2018-07-15T08:21:22.085Z,37.12
2018-07-15T08:23:50.773Z,37.83
2018-07-15T08:26:19.545Z,36.95
2018-07-15T08:28:48.260Z,37.49
2018-07-15T08:31:18.503Z,36.48
2018-07-15T08:33:47.308Z,37.65
2018-07-15T08:36:16.001Z,38.20
2018-07-15T08:38:44.679Z,38.06
2018-07-15T08:41:13.425Z,37.46
2018-07-15T08:43:42.118Z,35.58
2018-07-15T08:46:10.968Z,35.74
2018-07-15T08:48:39.695Z,35.99
2018-07-15T08:51:08.574Z,36.63
2018-07-15T08:53:37.316Z,37.17
2018-07-15T08:56:06.066Z,37.39
2018-07-15T08:58:34.781Z,37.79
2018-07-15T09:01:03.524Z,38.18
2018-07-15T09:03:32.222Z,37.69
2018-07-15T09:06:00.957Z,37.46
2018-07-15T09:08:29.653Z,37.23
2018-07-15T09:10:58.357Z,36.55
2018-07-15T09:13:27.069Z,36.06
2018-07-15T09:15:55.777Z,35.70
2018-07-15T09:18:25.042Z,36.38
2018-07-15T09:20:53.778Z,37.70
2018-07-15T09:23:22.504Z,37.18
2018-07-15T09:25:51.189Z,37.77
2018-07-15T09:28:19.885Z,37.26
2018-07-15T09:30:48.628Z,37.27
2018-07-15T09:33:17.326Z,38.25
2018-07-15T09:35:46.078Z,37.64
2018-07-15T09:38:14.870Z,35.64
2018-07-15T09:40:43.585Z,35.11
2018-07-15T09:43:12.354Z,34.83
2018-07-15T09:45:41.128Z,36.24
2018-07-15T09:48:10.701Z,36.00
2018-07-15T09:50:39.547Z,36.57
2018-07-15T09:53:08.246Z,35.97
2018-07-15T09:55:37.046Z,36.32
2018-07-15T09:58:05.834Z,36.81
2018-07-15T10:00:39.717Z,36.34
2018-07-15T10:03:08.414Z,36.30
2018-07-15T10:05:37.129Z,36.91
2018-07-15T10:08:05.886Z,36.23
2018-07-15T10:10:34.607Z,37.20
2018-07-15T10:13:03.315Z,36.97
2018-07-15T10:15:32.029Z,36.85
2018-07-15T10:18:00.753Z,36.31
2018-07-15T10:20:29.457Z,37.43
2018-07-15T10:22:58.162Z,37.08
2018-07-15T10:25:26.876Z,38.02
2018-07-15T10:27:55.577Z,38.36
2018-07-15T10:30:24.437Z,36.75
2018-07-15T10:32:53.353Z,37.23
2018-07-15T10:35:22.059Z,36.99
2018-07-15T10:37:50.828Z,36.73
2018-07-15T10:40:19.551Z,37.88
2018-07-15T10:42:48.461Z,36.69
2018-07-15T10:45:17.206Z,36.37
2018-07-15T10:47:46.066Z,37.86
2018-07-15T10:50:14.825Z,37.70
2018-07-15T10:52:43.658Z,39.18
2018-07-15T10:55:12.373Z,37.86
2018-07-15T10:57:41.075Z,37.93
2018-07-15T11:00:09.787Z,39.23
2018-07-15T11:02:38.502Z,39.33
2018-07-15T11:05:07.741Z,39.57
2018-07-15T11:07:36.442Z,37.84
2018-07-15T11:12:39.005Z,37.78
2018-07-15T11:15:07.686Z,38.33
2018-07-15T11:17:36.442Z,38.93
2018-07-15T11:20:05.251Z,36.91
2018-07-15T11:22:33.953Z,37.75
2018-07-15T11:25:02.692Z,37.47
2018-07-15T11:27:31.414Z,37.39
2018-07-15T11:30:00.323Z,37.10
2018-07-15T11:32:29.029Z,37.95
2018-07-15T11:34:57.717Z,37.90
2018-07-15T11:37:26.478Z,37.51
2018-07-15T11:39:55.197Z,37.98
2018-07-15T11:42:24.070Z,37.74
2018-07-15T11:44:52.799Z,37.86
2018-07-15T11:47:21.489Z,36.62
2018-07-15T11:49:50.214Z,36.61
2018-07-15T11:52:18.982Z,37.77
2018-07-15T11:54:47.816Z,38.86
2018-07-15T11:57:16.541Z,39.56
2018-07-15T11:59:45.235Z,38.23
2018-07-15T12:02:13.954Z,39.32
2018-07-15T12:04:42.649Z,39.09
2018-07-15T12:07:11.362Z,39.44
2018-07-15T12:09:40.062Z,38.99
2018-07-15T12:12:08.769Z,38.71
2018-07-15T12:14:37.515Z,39.43
2018-07-15T12:17:06.214Z,39.82
2018-07-15T12:19:35.049Z,39.84
2018-07-15T12:22:03.742Z,38.82
2018-07-15T12:24:32.425Z,38.36
2018-07-15T12:27:01.117Z,37.83
2018-07-15T12:29:29.805Z,38.27
2018-07-15T12:31:58.528Z,37.90
2018-07-15T12:34:27.204Z,38.70
2018-07-15T12:36:55.964Z,37.71
2018-07-15T12:39:24.702Z,36.33
2018-07-15T12:41:53.384Z,35.24
2018-07-15T12:44:22.182Z,34.43
2018-07-15T12:46:51.294Z,33.41
2018-07-15T12:49:20.188Z,33.57
2018-07-15T12:51:48.981Z,33.30
2018-07-15T12:54:17.764Z,32.97
2018-07-15T12:56:46.679Z,33.16
2018-07-15T12:59:15.854Z,33.29
2018-07-15T13:01:44.711Z,33.17
2018-07-15T13:04:13.442Z,32.93
2018-07-15T13:06:42.582Z,32.97
2018-07-15T13:09:11.827Z,32.82
2018-07-15T13:11:41.165Z,32.70
2018-07-15T13:14:10.334Z,32.45
2018-07-15T13:16:39.569Z,32.14
2018-07-15T13:19:08.389Z,32.29
2018-07-15T13:21:37.178Z,32.35
2018-07-15T13:24:05.952Z,32.36
2018-07-15T13:26:34.682Z,32.11
2018-07-15T13:29:03.479Z,32.38
2018-07-15T13:31:32.334Z,32.35
2018-07-15T13:34:01.159Z,32.14
2018-07-15T13:36:30.033Z,31.66
2018-07-15T13:38:58.835Z,31.60
2018-07-15T13:41:27.641Z,31.66
2018-07-15T13:43:56.896Z,31.80
2018-07-15T13:46:25.621Z,31.91
2018-07-15T13:48:54.435Z,31.71
2018-07-15T13:51:23.296Z,31.77
2018-07-15T13:53:52.116Z,31.40
2018-07-15T13:56:20.894Z,31.61
2018-07-15T13:58:49.843Z,31.34
2018-07-15T14:01:18.579Z,31.28
2018-07-15T14:03:47.319Z,31.01
2018-07-15T14:06:16.161Z,31.03
2018-07-15T14:08:44.934Z,31.22
2018-07-15T14:11:13.744Z,31.42
2018-07-15T14:13:42.538Z,31.31
2018-07-15T14:16:11.282Z,31.31
2018-07-15T14:18:40.091Z,31.50
2018-07-15T14:21:08.863Z,31.51
2018-07-15T14:23:37.600Z,31.06
2018-07-15T14:26:06.555Z,31.19
2018-07-15T14:28:35.343Z,31.12
2018-07-15T14:31:04.200Z,31.09
2018-07-15T14:33:32.978Z,30.87
2018-07-15T14:36:01.879Z,31.00
2018-07-15T14:38:30.666Z,30.81
2018-07-15T14:40:59.866Z,30.75
2018-07-15T14:43:28.625Z,30.61
2018-07-15T14:45:57.519Z,30.72
2018-07-15T14:48:26.414Z,30.59
2018-07-15T14:50:55.758Z,30.53
2018-07-15T14:53:24.954Z,30.65
2018-07-15T14:55:54.156Z,30.70
2018-07-15T14:58:23.331Z,30.59
2018-07-15T15:00:52.627Z,30.56
2018-07-15T15:03:21.839Z,30.70
2018-07-15T15:05:50.585Z,30.76
2018-07-15T15:08:19.404Z,30.78
2018-07-15T15:10:48.259Z,30.83
2018-07-15T15:13:17.224Z,30.86
2018-07-15T15:15:46.105Z,30.83
2018-07-15T15:18:14.983Z,30.57
2018-07-15T15:20:43.965Z,30.54
2018-07-15T15:23:13.040Z,30.33
2018-07-15T15:25:42.361Z,29.93
2018-07-15T15:28:11.751Z,29.95
2018-07-15T15:30:41.026Z,29.82
2018-07-15T15:33:10.194Z,29.75
2018-07-15T15:35:39.248Z,29.73
2018-07-15T15:38:08.513Z,29.80
2018-07-15T15:40:39.291Z,29.64
2018-07-15T15:43:09.225Z,29.66
2018-07-15T15:45:38.358Z,29.68
2018-07-15T15:48:07.818Z,29.61
2018-07-15T15:50:36.970Z,29.66
2018-07-15T15:53:06.199Z,29.70
2018-07-15T15:55:35.413Z,29.73
2018-07-15T15:58:04.644Z,29.73
2018-07-15T16:00:33.869Z,29.65
2018-07-15T16:03:03.087Z,29.63
2018-07-15T16:05:32.337Z,29.63
2018-07-15T16:08:01.588Z,29.64
2018-07-15T16:10:31.635Z,29.64
2018-07-15T16:13:01.859Z,29.34
2018-07-15T16:15:31.222Z,29.52
2018-07-15T16:18:00.942Z,29.52
2018-07-15T16:20:30.162Z,29.52
2018-07-15T16:22:59.933Z,29.42
2018-07-15T16:25:31.035Z,29.38
2018-07-15T16:28:01.714Z,29.29
2018-07-15T16:30:32.652Z,29.22
2018-07-15T16:33:01.854Z,29.09
2018-07-15T16:35:30.853Z,28.96
2018-07-15T16:38:00.159Z,28.92
2018-07-15T16:40:29.254Z,28.88
2018-07-15T16:43:00.419Z,28.83
2018-07-15T16:45:32.650Z,28.69
2018-07-15T16:48:03.590Z,28.61
2018-07-15T16:50:34.562Z,28.53
2018-07-15T16:53:04.796Z,28.40
2018-07-15T16:55:34.110Z,28.30
2018-07-15T16:58:03.364Z,28.21
2018-07-15T17:00:32.556Z,28.12
2018-07-15T17:03:01.793Z,27.98
2018-07-15T17:05:30.941Z,27.84
2018-07-15T17:08:00.247Z,27.73
2018-07-15T17:10:29.355Z,27.60
2018-07-15T17:12:58.597Z,27.48
2018-07-15T17:15:27.941Z,27.38
2018-07-15T17:17:57.155Z,27.22
2018-07-15T17:20:26.394Z,27.05
2018-07-15T17:22:55.414Z,26.94
2018-07-15T17:25:24.593Z,26.80
2018-07-15T17:27:53.392Z,26.70
2018-07-15T17:30:22.718Z,26.55
2018-07-15T17:32:52.523Z,26.44
2018-07-15T17:35:21.698Z,26.25
2018-07-15T17:37:50.826Z,26.18
2018-07-15T17:40:20.101Z,25.95
2018-07-15T17:42:49.444Z,25.77
2018-07-15T17:45:18.909Z,25.54
2018-07-15T17:47:48.134Z,25.40
2018-07-15T17:50:17.605Z,25.26
2018-07-15T17:52:47.007Z,25.13
2018-07-15T17:55:16.217Z,24.96
2018-07-15T17:57:45.405Z,24.74
2018-07-15T18:00:14.545Z,24.56
2018-07-15T18:02:43.839Z,24.46
2018-07-15T18:05:12.809Z,24.34
2018-07-15T18:07:42.046Z,24.19
2018-07-15T18:10:11.189Z,24.10
2018-07-15T18:12:40.225Z,23.98
2018-07-15T18:15:09.417Z,23.88
2018-07-15T18:17:38.573Z,23.83
2018-07-15T18:20:07.751Z,23.77
2018-07-15T18:22:37.004Z,23.68
2018-07-15T18:25:06.238Z,23.61
2018-07-15T18:27:35.372Z,23.56
2018-07-15T18:30:04.448Z,23.42
2018-07-15T18:32:33.759Z,23.29
2018-07-15T18:35:03.134Z,23.22
2018-07-15T18:37:32.551Z,23.15
2018-07-15T18:40:01.788Z,23.10
2018-07-15T18:42:31.074Z,22.98
2018-07-15T18:45:00.384Z,22.85
2018-07-15T18:47:29.384Z,22.69
2018-07-15T18:49:58.674Z,22.61
2018-07-15T18:52:27.896Z,22.54
2018-07-15T18:54:57.028Z,22.46
2018-07-15T18:57:26.257Z,22.42
2018-07-15T18:59:55.279Z,22.37
2018-07-15T19:02:24.452Z,22.39
2018-07-15T19:04:53.657Z,22.39
2018-07-15T19:07:22.901Z,22.30
2018-07-15T19:09:52.103Z,22.26
2018-07-15T19:12:21.254Z,22.31
2018-07-15T19:14:50.437Z,22.27
2018-07-15T19:17:19.791Z,22.25
2018-07-15T19:19:49.069Z,22.13
2018-07-15T19:22:18.263Z,22.03
2018-07-15T19:24:48.981Z,21.96
2018-07-15T19:27:18.179Z,21.94
2018-07-15T19:29:47.314Z,21.89
2018-07-15T19:32:22.410Z,21.80
2018-07-15T19:34:55.747Z,21.76
2018-07-15T19:37:29.999Z,21.69
2018-07-15T19:39:59.533Z,21.56
2018-07-15T19:42:28.681Z,21.49
2018-07-15T19:44:57.733Z,21.39
2018-07-15T19:47:26.972Z,21.39
2018-07-15T19:49:56.162Z,21.29
2018-07-15T19:52:25.312Z,21.26
2018-07-15T19:54:54.637Z,21.22
2018-07-15T19:57:23.922Z,21.11
2018-07-15T19:59:53.158Z,20.97
2018-07-15T20:02:22.315Z,20.89
2018-07-15T20:04:51.544Z,20.89
2018-07-15T20:07:20.717Z,20.84
2018-07-15T20:09:49.913Z,20.76
2018-07-15T20:12:25.142Z,20.64
2018-07-15T20:14:59.775Z,20.63
2018-07-15T20:17:34.730Z,20.61
2018-07-15T20:20:08.505Z,20.56
2018-07-15T20:22:43.503Z,20.54
2018-07-15T20:25:16.936Z,20.52
2018-07-15T20:27:51.073Z,20.55
2018-07-15T20:30:25.638Z,20.61
2018-07-15T20:33:00.931Z,20.61
2018-07-15T20:35:35.433Z,20.51
2018-07-15T20:38:08.759Z,20.51
2018-07-15T20:40:37.860Z,20.54
2018-07-15T20:43:06.594Z,20.55
2018-07-15T20:45:35.329Z,20.52
2018-07-15T20:48:04.202Z,20.51
2018-07-15T20:50:32.950Z,20.53
2018-07-15T20:53:01.823Z,20.47
2018-07-15T20:55:30.537Z,20.36
2018-07-15T20:57:59.250Z,20.41
2018-07-15T21:00:27.949Z,20.47
2018-07-15T21:02:56.677Z,20.52
2018-07-15T21:05:25.386Z,20.53
2018-07-15T21:07:54.333Z,20.51
2018-07-15T21:10:23.587Z,20.45
2018-07-15T21:12:52.710Z,20.37
2018-07-15T21:15:21.947Z,20.36
2018-07-15T21:17:51.065Z,20.32
2018-07-15T21:20:19.976Z,20.34
2018-07-15T21:22:48.978Z,20.33
2018-07-15T21:25:17.942Z,20.34
2018-07-15T21:27:46.863Z,20.50
2018-07-15T21:30:15.902Z,20.53
2018-07-15T21:32:45.057Z,20.55
2018-07-15T21:35:13.982Z,20.57
2018-07-15T21:37:42.922Z,20.51
2018-07-15T21:40:12.154Z,20.42
2018-07-15T21:42:41.445Z,20.30
2018-07-15T21:45:10.738Z,20.21
2018-07-15T21:47:40.069Z,20.00
2018-07-15T21:50:09.271Z,19.89
2018-07-15T21:52:38.478Z,19.82
2018-07-15T21:55:07.733Z,19.81
2018-07-15T21:57:36.980Z,19.68
2018-07-15T22:00:07.059Z,19.68
2018-07-15T22:02:36.178Z,19.63
2018-07-15T22:05:05.387Z,19.58
2018-07-15T22:07:45.283Z,19.53
2018-07-15T22:10:24.406Z,19.57
2018-07-15T22:12:53.525Z,19.63
2018-07-15T22:15:22.217Z,19.67
2018-07-15T22:17:50.935Z,19.82
2018-07-15T22:20:19.641Z,19.87
2018-07-15T22:22:48.414Z,19.84
2018-07-15T22:25:17.114Z,19.77
2018-07-15T22:27:45.841Z,19.74
2018-07-15T22:30:14.561Z,19.69
2018-07-15T22:32:43.761Z,19.64
2018-07-15T22:35:12.488Z,19.67
2018-07-15T22:37:41.246Z,19.65
2018-07-15T22:40:09.937Z,19.66
2018-07-15T22:42:38.656Z,19.63
2018-07-15T22:45:07.776Z,19.66
2018-07-15T22:47:36.496Z,19.64
2018-07-15T22:50:05.229Z,19.60
2018-07-15T22:52:34.042Z,19.69
2018-07-15T22:55:02.738Z,19.68
2018-07-15T22:57:31.470Z,19.64
2018-07-15T23:00:00.178Z,19.53
2018-07-15T23:02:28.891Z,19.51
2018-07-15T23:05:36.110Z,19.48
2018-07-15T23:08:05.691Z,19.32
2018-07-15T23:10:34.887Z,19.26
2018-07-15T23:13:05.229Z,19.19
2018-07-15T23:15:34.882Z,19.20
2018-07-15T23:18:04.050Z,19.17
2018-07-15T23:20:33.945Z,19.22
2018-07-15T23:23:04.161Z,19.27
2018-07-15T23:25:33.674Z,19.39
2018-07-15T23:28:03.265Z,19.33
2018-07-15T23:30:33.144Z,19.32
2018-07-15T23:33:02.673Z,19.32
2018-07-15T23:35:32.334Z,19.40
2018-07-15T23:38:01.447Z,19.40
2018-07-15T23:40:30.592Z,19.35
2018-07-15T23:43:00.237Z,19.31
2018-07-15T23:45:30.186Z,19.31
2018-07-15T23:47:59.314Z,19.28
2018-07-15T23:50:28.362Z,19.27
2018-07-15T23:52:57.525Z,19.25
2018-07-15T23:55:26.821Z,19.35
2018-07-15T23:57:56.085Z,19.29
